Weather at Long Sukang Airport

Public forecast

Using degrees Celsius for public forecast. Weather courtesy of forecast.io.

Closest aviation weather report (METAR) to Long Sukang Airport

Closest report is Brunei International Airport, 41.2 nm (76.4 km) NW.

2024/06/16 22:00 (retrieved 18 minutes ago)

WBSB 162200Z 20003KT 9999 FEW004 FEW015CB SCT140 BKN300 25/25 Q1009 RETS NOSIG

Closest aviation forecast (TAF) to Long Sukang Airport

Closest forecast is Brunei International Airport, 41.2 nm (76.4 km) NW.

2024/06/16 18:10 (retrieved 4 hours ago)

TAF WBSB 161650Z 1618/1800 12004KT 9999 FEW004 FEW015CB TEMPO 1618/1620 7000 -SHRA BECMG 1700/1702 FEW014 FEW015CB